createdAt,value
2019-05-14T00:02:13.309Z,92.76
2019-05-14T00:04:42.956Z,93.73
2019-05-14T00:07:12.696Z,95.20
2019-05-14T00:09:43.305Z,96.12
2019-05-14T00:12:12.970Z,97.34
2019-05-14T00:14:43.811Z,100.00
2019-05-14T00:17:13.656Z,100.00
2019-05-14T00:19:43.298Z,99.73
2019-05-14T00:22:13.046Z,97.24
2019-05-14T00:24:42.677Z,99.56
2019-05-14T00:27:12.687Z,100.00
2019-05-14T00:29:43.672Z,100.00
2019-05-14T00:32:13.330Z,100.00
2019-05-14T00:34:42.976Z,100.00
2019-05-14T00:37:12.666Z,100.00
2019-05-14T00:39:43.885Z,100.00
2019-05-14T00:42:13.538Z,100.00
2019-05-14T00:44:54.505Z,100.00
2019-05-14T00:47:14.565Z,100.00
2019-05-14T00:49:44.297Z,100.00
2019-05-14T00:52:13.960Z,100.00
2019-05-14T00:54:43.691Z,100.00
2019-05-14T00:57:13.352Z,100.00
2019-05-14T00:59:43.017Z,100.00
2019-05-14T01:02:12.668Z,100.00
2019-05-14T01:04:42.996Z,100.00
2019-05-14T01:07:12.774Z,100.00
2019-05-14T01:09:42.419Z,98.34
2019-05-14T01:12:12.380Z,100.00
2019-05-14T01:14:42.591Z,100.00
2019-05-14T01:17:12.579Z,100.00
2019-05-14T01:19:42.721Z,100.00
2019-05-14T01:22:12.779Z,100.00
2019-05-14T01:24:42.518Z,100.00
2019-05-14T01:27:12.637Z,100.00
2019-05-14T01:29:42.822Z,100.00
2019-05-14T01:32:12.858Z,100.00
2019-05-14T01:34:42.886Z,100.00
2019-05-14T01:37:12.609Z,100.00
2019-05-14T01:39:42.339Z,100.00
2019-05-14T01:42:12.796Z,100.00
2019-05-14T01:44:42.445Z,100.00
2019-05-14T01:47:12.816Z,100.00
2019-05-14T01:49:42.987Z,100.00
2019-05-14T01:52:12.646Z,100.00
2019-05-14T01:54:43.377Z,100.00
2019-05-14T01:57:13.044Z,100.00
2019-05-14T01:59:43.065Z,100.00
2019-05-14T02:02:12.745Z,100.00
2019-05-14T02:04:42.962Z,100.00
2019-05-14T02:07:15.922Z,100.00
2019-05-14T02:09:44.322Z,100.00
2019-05-14T02:12:13.987Z,100.00
2019-05-14T02:14:43.632Z,100.00
2019-05-14T02:17:14.951Z,100.00
2019-05-14T02:19:44.677Z,100.00
2019-05-14T02:22:14.318Z,100.00
2019-05-14T02:24:43.976Z,100.00
2019-05-14T02:27:13.636Z,100.00
2019-05-14T02:29:43.295Z,100.00
2019-05-14T02:32:12.943Z,100.00
2019-05-14T02:34:42.603Z,100.00
2019-05-14T02:37:12.255Z,100.00
2019-05-14T02:39:41.927Z,100.00
2019-05-14T02:42:11.594Z,100.00
2019-05-14T02:44:41.255Z,100.00
2019-05-14T02:47:10.877Z,100.00
2019-05-14T02:49:40.546Z,100.00
2019-05-14T02:52:11.295Z,100.00
2019-05-14T02:54:40.942Z,100.00
2019-05-14T02:57:10.973Z,100.00
2019-05-14T02:59:42.788Z,100.00
2019-05-14T03:04:55.086Z,100.00
2019-05-14T03:07:24.886Z,100.00
2019-05-14T03:09:54.543Z,100.00
2019-05-14T03:12:24.267Z,100.00
2019-05-14T03:14:54.065Z,100.00
2019-05-14T03:17:23.716Z,100.00
2019-05-14T03:19:53.452Z,100.00
2019-05-14T03:22:26.507Z,100.00
2019-05-14T03:24:54.765Z,100.00
2019-05-14T03:27:24.436Z,100.00
2019-05-14T03:29:55.370Z,100.00
2019-05-14T03:32:25.349Z,100.00
2019-05-14T03:34:55.008Z,100.00
2019-05-14T03:37:24.875Z,100.00
2019-05-14T03:39:59.222Z,100.00
2019-05-14T03:42:29.245Z,100.00
2019-05-14T03:44:59.837Z,100.00
2019-05-14T03:47:29.984Z,100.00
2019-05-14T03:49:59.802Z,100.00
2019-05-14T03:52:29.657Z,100.00
2019-05-14T03:55:04.314Z,100.00
2019-05-14T03:57:30.754Z,100.00
2019-05-14T04:00:00.442Z,100.00
2019-05-14T04:02:30.138Z,100.00
2019-05-14T04:05:00.207Z,100.00
2019-05-14T04:07:32.180Z,100.00
2019-05-14T04:10:04.119Z,100.00
2019-05-14T04:12:40.200Z,100.00
2019-05-14T04:15:09.750Z,100.00
2019-05-14T04:17:42.432Z,100.00
2019-05-14T04:20:12.789Z,100.00
2019-05-14T04:22:43.946Z,100.00
2019-05-14T04:25:13.941Z,100.00
2019-05-14T04:27:49.439Z,100.00
2019-05-14T04:30:23.742Z,100.00
2019-05-14T04:32:52.276Z,100.00
2019-05-14T04:35:22.398Z,100.00
2019-05-14T04:37:52.328Z,100.00
2019-05-14T04:40:22.023Z,100.00
2019-05-14T04:42:51.742Z,100.00
2019-05-14T04:45:21.400Z,100.00
2019-05-14T04:47:51.047Z,100.00
2019-05-14T04:50:25.029Z,100.00
2019-05-14T04:52:52.146Z,100.00
2019-05-14T04:55:21.797Z,100.00
2019-05-14T04:57:51.511Z,100.00
2019-05-14T05:00:21.185Z,100.00
2019-05-14T05:02:50.837Z,100.00
2019-05-14T05:05:20.494Z,100.00
2019-05-14T05:07:50.142Z,100.00
2019-05-14T05:10:19.940Z,100.00
2019-05-14T05:12:49.597Z,100.00
2019-05-14T05:15:19.880Z,100.00
2019-05-14T05:17:52.785Z,100.00
2019-05-14T05:20:20.977Z,100.00
2019-05-14T05:22:50.619Z,100.00
2019-05-14T05:25:20.263Z,100.00
2019-05-14T05:27:49.923Z,100.00
2019-05-14T05:30:20.611Z,100.00
2019-05-14T05:32:50.266Z,100.00
2019-05-14T05:35:20.933Z,100.00
2019-05-14T05:37:50.596Z,100.00
2019-05-14T05:40:20.311Z,100.00
2019-05-14T05:42:49.964Z,100.00
2019-05-14T05:45:21.075Z,100.00
2019-05-14T05:47:57.442Z,100.00
2019-05-14T05:50:22.318Z,100.00
2019-05-14T05:52:53.887Z,100.00
2019-05-14T05:55:23.411Z,100.00
2019-05-14T05:57:53.112Z,100.00
2019-05-14T06:00:40.147Z,100.00
2019-05-14T06:03:11.051Z,100.00
2019-05-14T06:05:40.980Z,100.00
2019-05-14T06:08:10.641Z,100.00
2019-05-14T06:10:40.305Z,100.00
2019-05-14T06:13:09.982Z,100.00
2019-05-14T06:15:48.326Z,100.00
2019-05-14T06:18:17.805Z,100.00
2019-05-14T06:20:42.454Z,100.00
2019-05-14T06:23:12.115Z,100.00
2019-05-14T06:25:43.129Z,100.00
2019-05-14T06:28:12.788Z,100.00
2019-05-14T06:30:42.690Z,100.00
2019-05-14T06:33:12.360Z,100.00
2019-05-14T06:35:42.027Z,100.00
2019-05-14T06:38:11.699Z,100.00
2019-05-14T06:40:41.353Z,100.00
2019-05-14T06:43:11.026Z,100.00
2019-05-14T06:45:40.698Z,100.00
2019-05-14T06:48:10.362Z,100.00
2019-05-14T06:50:40.023Z,100.00
2019-05-14T06:53:09.700Z,100.00
2019-05-14T06:55:40.372Z,100.00
2019-05-14T06:58:10.042Z,100.00
2019-05-14T07:00:39.712Z,100.00
2019-05-14T07:03:09.370Z,100.00
2019-05-14T07:05:39.270Z,100.00
2019-05-14T07:08:09.234Z,100.00
2019-05-14T07:10:39.445Z,100.00
2019-05-14T07:13:09.308Z,100.00
2019-05-14T07:15:38.961Z,97.20
2019-05-14T07:18:08.797Z,97.28
2019-05-14T07:20:39.249Z,94.03
2019-05-14T07:23:09.141Z,93.52
2019-05-14T07:25:39.465Z,94.96
2019-05-14T07:28:09.171Z,92.98
2019-05-14T07:30:39.597Z,92.58
2019-05-14T07:33:09.663Z,91.27
2019-05-14T07:35:39.525Z,90.68
2019-05-14T07:38:09.289Z,90.02
2019-05-14T07:40:39.271Z,89.29
2019-05-14T07:43:09.237Z,88.93
2019-05-14T07:45:38.906Z,85.80
2019-05-14T07:48:09.512Z,85.28
2019-05-14T07:50:39.867Z,86.07
2019-05-14T07:53:09.756Z,85.00
2019-05-14T07:55:39.423Z,86.06
2019-05-14T07:58:09.088Z,87.18
2019-05-14T08:00:40.432Z,86.08
2019-05-14T08:03:10.202Z,85.95
2019-05-14T08:05:39.854Z,84.81
2019-05-14T08:08:09.525Z,84.22
2019-05-14T08:10:39.356Z,82.84
2019-05-14T08:13:09.130Z,81.49
2019-05-14T08:15:38.878Z,81.82
2019-05-14T08:18:08.572Z,82.06
2019-05-14T08:20:38.237Z,82.67
2019-05-14T08:23:08.962Z,85.43
2019-05-14T08:25:39.168Z,80.05
2019-05-14T08:28:08.873Z,80.86
2019-05-14T08:30:39.025Z,79.87
2019-05-14T08:33:09.107Z,77.25
2019-05-14T08:35:39.590Z,74.87
2019-05-14T08:38:12.214Z,75.80
2019-05-14T08:40:40.730Z,79.38
2019-05-14T08:43:10.390Z,79.64
2019-05-14T08:45:40.060Z,78.94
2019-05-14T08:48:09.717Z,77.08
2019-05-14T08:50:39.361Z,77.97
2019-05-14T08:53:09.232Z,77.49
2019-05-14T08:55:38.959Z,73.49
2019-05-14T08:58:13.509Z,72.91
2019-05-14T09:00:40.004Z,70.41
2019-05-14T09:03:09.733Z,71.54
2019-05-14T09:05:39.466Z,70.73
2019-05-14T09:08:09.138Z,72.48
2019-05-14T09:10:40.212Z,72.49
2019-05-14T09:13:10.194Z,65.55
2019-05-14T09:15:39.903Z,59.55
2019-05-14T09:18:11.769Z,58.13
2019-05-14T09:20:40.967Z,58.53
2019-05-14T09:23:10.650Z,52.78
2019-05-14T09:25:47.073Z,50.88
2019-05-14T09:28:11.785Z,51.36
2019-05-14T09:30:41.445Z,55.12
2019-05-14T09:33:11.088Z,54.90
2019-05-14T09:35:40.745Z,53.14
2019-05-14T09:38:10.403Z,51.23
2019-05-14T09:40:41.085Z,48.84
2019-05-14T09:43:11.423Z,47.87
2019-05-14T09:45:41.086Z,48.92
2019-05-14T09:48:10.734Z,49.48
2019-05-14T09:50:40.453Z,46.91
2019-05-14T09:53:10.157Z,48.23
2019-05-14T09:55:39.792Z,47.46
2019-05-14T09:58:09.453Z,46.77
2019-05-14T10:00:39.221Z,44.34
2019-05-14T10:03:09.853Z,44.30
2019-05-14T10:05:39.693Z,42.29
2019-05-14T10:08:09.367Z,44.54
2019-05-14T10:10:39.975Z,44.53
2019-05-14T10:13:10.064Z,44.13
2019-05-14T10:15:39.872Z,44.82
2019-05-14T10:18:11.681Z,43.36
2019-05-14T10:20:45.734Z,44.84
2019-05-14T10:23:12.399Z,45.46
2019-05-14T10:25:42.586Z,47.92
2019-05-14T10:28:12.315Z,47.98
2019-05-14T10:30:42.042Z,47.33
2019-05-14T10:33:14.901Z,45.98
2019-05-14T10:35:43.576Z,45.94
2019-05-14T10:38:13.233Z,45.09
2019-05-14T10:40:43.041Z,45.19
2019-05-14T10:43:12.711Z,45.29
2019-05-14T10:45:42.364Z,44.73
2019-05-14T10:48:12.034Z,46.65
2019-05-14T10:50:56.206Z,45.77
2019-05-14T10:53:13.262Z,46.57
2019-05-14T10:55:43.976Z,45.14
2019-05-14T10:58:15.188Z,45.81
2019-05-14T11:00:44.918Z,46.05
2019-05-14T11:03:14.582Z,46.33
2019-05-14T11:05:44.237Z,46.70
2019-05-14T11:08:13.977Z,46.22
2019-05-14T11:10:46.008Z,47.15
2019-05-14T11:13:19.148Z,48.14
2019-05-14T11:15:48.912Z,48.92
2019-05-14T11:18:19.945Z,48.49
2019-05-14T11:20:51.370Z,47.09
2019-05-14T11:23:21.427Z,46.90
2019-05-14T11:25:51.105Z,47.99
2019-05-14T11:28:20.754Z,47.54
2019-05-14T11:30:50.415Z,46.44
2019-05-14T11:33:20.070Z,47.64
2019-05-14T11:35:49.751Z,46.46
2019-05-14T11:38:32.306Z,45.31
2019-05-14T11:40:50.899Z,45.78
2019-05-14T11:43:20.567Z,45.41
2019-05-14T11:45:50.288Z,44.58
2019-05-14T11:48:21.574Z,44.63
2019-05-14T11:50:51.237Z,46.40
2019-05-14T11:53:20.951Z,45.66
2019-05-14T11:55:50.714Z,45.09
2019-05-14T11:58:21.510Z,43.71
2019-05-14T12:00:51.254Z,43.26
2019-05-14T12:03:20.911Z,44.19
2019-05-14T12:05:50.562Z,44.04
2019-05-14T12:08:20.221Z,43.72
2019-05-14T12:10:49.880Z,44.06
2019-05-14T12:13:21.174Z,42.67
2019-05-14T12:15:50.836Z,43.10
2019-05-14T12:18:20.513Z,42.37
2019-05-14T12:20:50.157Z,43.18
2019-05-14T12:23:19.819Z,41.86
2019-05-14T12:25:50.889Z,41.19
2019-05-14T12:28:21.772Z,39.88
2019-05-14T12:30:51.431Z,40.57
2019-05-14T12:33:21.084Z,40.16
2019-05-14T12:35:50.766Z,40.35
2019-05-14T12:38:20.613Z,39.30
2019-05-14T12:40:50.264Z,39.68
2019-05-14T12:43:19.989Z,38.74
2019-05-14T12:45:50.908Z,39.48
2019-05-14T12:48:20.567Z,37.78
2019-05-14T12:50:50.247Z,37.42
2019-05-14T12:53:20.125Z,35.96
2019-05-14T12:55:49.837Z,35.08
2019-05-14T12:58:20.526Z,35.10
2019-05-14T13:00:50.414Z,36.65
2019-05-14T13:03:20.049Z,36.44
2019-05-14T13:05:49.710Z,36.19
2019-05-14T13:08:19.381Z,36.43
2019-05-14T13:10:50.577Z,34.72
2019-05-14T13:13:20.243Z,31.25
2019-05-14T13:15:49.898Z,30.49
2019-05-14T13:18:20.968Z,35.64
2019-05-14T13:20:50.634Z,37.90
2019-05-14T13:23:20.320Z,38.70
2019-05-14T13:25:49.991Z,31.47
2019-05-14T13:28:19.643Z,25.74
2019-05-14T13:30:49.306Z,23.04
2019-05-14T13:33:19.397Z,24.51
2019-05-14T13:35:50.650Z,26.26
2019-05-14T13:38:20.303Z,29.61
2019-05-14T13:40:49.956Z,29.96
2019-05-14T13:43:19.620Z,29.42
2019-05-14T13:45:49.577Z,31.51
2019-05-14T13:48:19.315Z,24.08
2019-05-14T13:50:49.298Z,22.12
2019-05-14T13:53:19.188Z,20.79
2019-05-14T13:55:57.056Z,23.78
2019-05-14T13:58:21.171Z,22.50
2019-05-14T14:00:52.304Z,22.25
2019-05-14T14:03:22.003Z,27.27
2019-05-14T14:05:51.742Z,23.80
2019-05-14T14:08:23.516Z,24.78
2019-05-14T14:10:54.412Z,23.07
2019-05-14T14:13:25.013Z,25.12
2019-05-14T14:15:55.246Z,21.08
2019-05-14T14:18:26.372Z,22.27
2019-05-14T14:20:56.213Z,25.94
2019-05-14T14:23:30.416Z,27.52
2019-05-14T14:25:59.524Z,29.57
2019-05-14T14:28:28.742Z,26.74
2019-05-14T14:30:59.797Z,21.42
2019-05-14T14:33:29.463Z,24.14
2019-05-14T14:35:59.119Z,27.35
2019-05-14T14:38:29.603Z,21.29
2019-05-14T14:40:59.841Z,19.69
2019-05-14T14:43:30.154Z,20.37
2019-05-14T14:46:00.147Z,19.74
2019-05-14T14:48:30.700Z,18.21
2019-05-14T14:51:01.273Z,20.86
2019-05-14T14:53:51.050Z,21.79
2019-05-14T14:56:03.440Z,22.36
2019-05-14T14:58:33.660Z,18.94
2019-05-14T15:01:03.733Z,18.49
2019-05-14T15:03:33.674Z,17.25
2019-05-14T15:06:03.919Z,17.41
2019-05-14T15:08:34.144Z,22.01
2019-05-14T15:11:04.525Z,21.79
2019-05-14T15:13:34.451Z,19.11
2019-05-14T15:16:04.406Z,17.29
2019-05-14T15:18:38.688Z,17.09
2019-05-14T15:21:09.705Z,17.38
2019-05-14T15:23:43.227Z,16.67
2019-05-14T15:26:12.818Z,16.89
2019-05-14T15:28:43.068Z,21.36
2019-05-14T15:31:13.287Z,24.55
2019-05-14T15:33:43.512Z,25.52
2019-05-14T15:36:13.240Z,27.53
2019-05-14T15:38:42.884Z,27.51
2019-05-14T15:41:13.656Z,23.50
2019-05-14T15:43:43.613Z,26.71
2019-05-14T15:46:13.278Z,28.48
2019-05-14T15:48:42.932Z,30.47
2019-05-14T15:51:15.110Z,30.09
2019-05-14T15:54:05.006Z,30.61
2019-05-14T15:56:18.569Z,30.38
2019-05-14T15:58:47.197Z,29.34
2019-05-14T16:01:19.304Z,29.77
2019-05-14T16:03:48.415Z,28.99
2019-05-14T16:06:19.341Z,29.78
2019-05-14T16:08:49.183Z,30.77
2019-05-14T16:11:18.937Z,31.50
2019-05-14T16:13:49.405Z,31.92
2019-05-14T16:16:19.786Z,32.65
2019-05-14T16:18:49.562Z,33.31
2019-05-14T16:21:19.217Z,33.71
2019-05-14T16:23:48.937Z,34.04
2019-05-14T16:26:18.936Z,34.23
2019-05-14T16:28:48.691Z,34.10
2019-05-14T16:31:18.571Z,33.83
2019-05-14T16:33:49.564Z,33.72
2019-05-14T16:36:19.640Z,33.79
2019-05-14T16:38:49.289Z,34.13
2019-05-14T16:41:19.024Z,34.50
2019-05-14T16:43:49.397Z,35.14
2019-05-14T16:46:19.773Z,34.94
2019-05-14T16:48:49.434Z,35.27
2019-05-14T16:51:19.525Z,34.88
2019-05-14T16:53:49.231Z,34.74
2019-05-14T16:56:19.294Z,35.00
2019-05-14T16:58:49.031Z,35.32
2019-05-14T17:01:19.400Z,35.24
2019-05-14T17:03:49.738Z,36.14
2019-05-14T17:06:19.583Z,36.74
2019-05-14T17:08:49.311Z,37.39
2019-05-14T17:11:18.987Z,37.52
2019-05-14T17:13:49.139Z,37.99
2019-05-14T17:16:19.521Z,38.43
2019-05-14T17:18:49.458Z,38.22
2019-05-14T17:21:19.348Z,38.66
2019-05-14T17:23:49.162Z,38.57
2019-05-14T17:26:19.180Z,39.88
2019-05-14T17:28:49.082Z,40.42
2019-05-14T17:31:19.244Z,41.12
2019-05-14T17:33:49.469Z,41.62
2019-05-14T17:36:19.226Z,41.65
2019-05-14T17:39:09.161Z,40.98
2019-05-14T17:41:42.033Z,41.49
2019-05-14T17:44:10.261Z,42.28
2019-05-14T17:46:40.093Z,41.92
2019-05-14T17:49:09.731Z,41.77
2019-05-14T17:51:39.388Z,42.12
2019-05-14T17:54:11.605Z,42.45
2019-05-14T17:56:41.215Z,42.37
2019-05-14T17:59:10.858Z,43.58
2019-05-14T18:01:40.512Z,44.46
2019-05-14T18:04:11.680Z,44.69
2019-05-14T18:06:41.318Z,45.79
2019-05-14T18:09:10.979Z,47.26
2019-05-14T18:11:40.630Z,47.58
2019-05-14T18:14:11.955Z,48.58
2019-05-14T18:16:42.033Z,48.57
2019-05-14T18:19:11.706Z,49.76
2019-05-14T18:21:41.434Z,49.88
2019-05-14T18:24:11.086Z,50.53
2019-05-14T18:26:40.757Z,51.23
2019-05-14T18:29:10.413Z,53.06
2019-05-14T18:31:44.005Z,53.52
2019-05-14T18:34:11.545Z,53.97
2019-05-14T18:36:42.708Z,54.75
2019-05-14T18:39:12.452Z,55.92
2019-05-14T18:41:43.656Z,55.85
2019-05-14T18:44:13.309Z,55.17
2019-05-14T18:46:42.970Z,57.47
2019-05-14T18:49:12.618Z,57.39
2019-05-14T18:51:43.378Z,57.70
2019-05-14T18:54:13.110Z,57.04
2019-05-14T18:56:42.791Z,58.81
2019-05-14T18:59:12.441Z,58.67
2019-05-14T19:01:42.173Z,59.20
2019-05-14T19:04:11.962Z,61.00
2019-05-14T19:06:41.604Z,63.24
2019-05-14T19:09:11.701Z,63.34
2019-05-14T19:11:42.997Z,63.99
2019-05-14T19:14:12.657Z,64.86
2019-05-14T19:16:42.313Z,63.64
2019-05-14T19:19:11.976Z,64.04
2019-05-14T19:21:41.630Z,65.13
2019-05-14T19:24:11.295Z,64.16
2019-05-14T19:26:41.011Z,63.75
2019-05-14T19:29:10.648Z,63.78
2019-05-14T19:31:42.764Z,65.92
2019-05-14T19:34:14.532Z,65.60
2019-05-14T19:36:43.923Z,66.53
2019-05-14T19:39:13.616Z,66.28
2019-05-14T19:41:43.267Z,66.42
2019-05-14T19:44:12.960Z,66.17
2019-05-14T19:46:42.635Z,68.45
2019-05-14T19:49:12.304Z,68.35
2019-05-14T19:51:43.577Z,68.48
2019-05-14T19:54:13.235Z,71.07
2019-05-14T19:56:55.583Z,70.73
2019-05-14T19:59:14.343Z,70.12
2019-05-14T20:01:44.171Z,81.16
2019-05-14T20:04:13.833Z,72.30
2019-05-14T20:06:43.600Z,72.65
2019-05-14T20:09:13.338Z,77.91
2019-05-14T20:11:42.985Z,75.33
2019-05-14T20:14:12.719Z,79.09
2019-05-14T20:16:42.366Z,77.78
2019-05-14T20:19:12.026Z,75.30
2019-05-14T20:21:43.802Z,76.55
2019-05-14T20:24:14.545Z,77.12
2019-05-14T20:26:45.664Z,75.49
2019-05-14T20:29:15.573Z,77.89
2019-05-14T20:31:45.243Z,79.20
2019-05-14T20:34:14.896Z,78.31
2019-05-14T20:36:44.561Z,77.24
2019-05-14T20:39:15.425Z,78.33
2019-05-14T20:41:45.210Z,78.29
2019-05-14T20:44:14.840Z,83.54
2019-05-14T20:46:45.625Z,88.34
2019-05-14T20:49:15.347Z,78.89
2019-05-14T20:51:45.014Z,79.01
2019-05-14T20:54:14.680Z,79.25
2019-05-14T20:56:44.343Z,79.08
2019-05-14T20:59:15.553Z,79.00
2019-05-14T21:01:45.206Z,78.73
2019-05-14T21:04:14.881Z,80.43
2019-05-14T21:06:44.542Z,83.48
2019-05-14T21:09:14.205Z,80.13
2019-05-14T21:11:44.005Z,82.93
2019-05-14T21:14:14.436Z,83.10
2019-05-14T21:16:44.181Z,81.50
2019-05-14T21:19:13.842Z,81.58
2019-05-14T21:21:43.491Z,82.26
2019-05-14T21:24:13.500Z,86.24
2019-05-14T21:26:43.146Z,82.12
2019-05-14T21:29:12.822Z,85.11
2019-05-14T21:31:42.541Z,82.49
2019-05-14T21:34:12.207Z,83.09
2019-05-14T21:36:43.496Z,82.93
2019-05-14T21:39:13.229Z,83.24
2019-05-14T21:41:42.880Z,82.77
2019-05-14T21:44:12.626Z,82.59
2019-05-14T21:46:42.274Z,83.73
2019-05-14T21:49:11.932Z,83.52
2019-05-14T21:51:41.591Z,83.65
2019-05-14T21:54:11.243Z,84.27
2019-05-14T21:56:40.966Z,84.51
2019-05-14T21:59:10.611Z,84.05
2019-05-14T22:01:40.348Z,84.63
2019-05-14T22:04:11.579Z,85.42
2019-05-14T22:06:41.611Z,85.94
2019-05-14T22:09:11.465Z,84.80
2019-05-14T22:11:41.268Z,86.16
2019-05-14T22:14:11.087Z,86.85
2019-05-14T22:16:40.821Z,87.56
2019-05-14T22:19:11.308Z,86.86
2019-05-14T22:21:41.809Z,86.73
2019-05-14T22:24:11.714Z,86.60
2019-05-14T22:26:41.365Z,87.58
2019-05-14T22:29:11.042Z,86.48
2019-05-14T22:31:40.695Z,86.37
2019-05-14T22:34:10.358Z,88.92
2019-05-14T22:36:40.016Z,91.17
2019-05-14T22:39:09.679Z,90.60
2019-05-14T22:41:39.336Z,93.42
2019-05-14T22:44:09.505Z,93.41
2019-05-14T22:46:40.385Z,95.21
2019-05-14T22:49:10.146Z,94.61
2019-05-14T22:51:40.295Z,94.17
2019-05-14T22:54:09.944Z,94.79
2019-05-14T22:56:39.605Z,93.52
2019-05-14T22:59:09.262Z,96.13
2019-05-14T23:01:40.464Z,93.92
2019-05-14T23:04:11.056Z,94.17
2019-05-14T23:06:40.714Z,98.51
2019-05-14T23:09:10.381Z,100.00
2019-05-14T23:11:40.050Z,100.00
2019-05-14T23:14:09.708Z,99.10
2019-05-14T23:16:41.909Z,99.35
2019-05-14T23:19:11.262Z,100.00
2019-05-14T23:21:40.918Z,100.00
2019-05-14T23:24:10.582Z,100.00
2019-05-14T23:26:40.254Z,100.00
2019-05-14T23:29:09.915Z,100.00
2019-05-14T23:31:39.576Z,100.00
2019-05-14T23:34:09.238Z,100.00
2019-05-14T23:36:39.057Z,100.00
2019-05-14T23:39:09.153Z,100.00
2019-05-14T23:41:39.007Z,100.00
2019-05-14T23:44:08.676Z,100.00
2019-05-14T23:46:38.338Z,100.00
2019-05-14T23:49:09.522Z,100.00
2019-05-14T23:51:39.180Z,100.00
2019-05-14T23:54:09.027Z,100.00
2019-05-14T23:56:38.733Z,100.00
2019-05-14T23:59:09.260Z,100.00
